Hovedside
METAR-TAF:

METAR-TAF

Lufthavner :

Vava'u, Tonga

breddegrad: 18-35-07S, lengdegrad: 173-57-42W, høyde over havet: 72 m

Gjeldene værobservasjon

Denne rapporten ble laget for 59 minutter siden, klokken 01:00 UTC
Vind 7 kt fra Øst-nordøst
Temperatur 29°C
Luftfuktighet 79%
Trykk 1010 hPa
Sikt 10 km eller mer
Spredte skyer i en høyde av 1700 ft

METAR: NFTV 200100Z 06007KT 9999 SCT017 29/25 Q1010

Tid: 14:59 (01:59 UTC)

Varsel

Denne rapporten ble laget for 2 timer og 54 minutter siden, klokken 23:05 UTC
Varsel gyldig fra 20. klokken 00 UTC til 20. klokken 24 UTC
Vind 3 kt fra skiftende retning
Sikt 10 km eller mer
Spredte skyer i en høyde av 1700 ft
Sannsynlighet 40% :
Midlertidig
fra 20. klokken 18 UTC til 20. klokken 24 UTC
Sikt: 5000 m
Brutte skyer i en høyde av 1500 ft
regnbyger,

TAF: NFTV 192305Z 2000/2024 VRB03KT 9999 SCT017 PROB40 TEMPO 2018/2024 5000 SHRA BKN015

Værobservasjoner og værvarsel for over 4000 flyplasser (METAR- og TAF-rapporter).

Tilgjengelige stasjoner er representert av de røde og gule prikkene på kartet.

Hold musepekeren over prikken for å se navnet på stasjonen.

Klikk så for å se værobservasjoner og -varsler.

For å forandre kartet kan du klikke på den grønne knappen med svart kryss for å zoome inn, på den grønne knappen med strek for å zoome ut, eller på de grønne pilene for å se tilstøtende kart.


METAR-TAF: